createdAt,value
2022-10-11T00:02:25.253Z,2.53
2022-10-11T00:07:24.193Z,2.45
2022-10-11T00:09:52.107Z,2.80
2022-10-11T00:12:19.445Z,2.70
2022-10-11T00:14:47.081Z,2.50
2022-10-11T00:17:20.261Z,2.60
2022-10-11T00:19:52.415Z,2.70
2022-10-11T00:22:24.755Z,2.65
2022-10-11T00:24:55.105Z,2.67
2022-10-11T00:27:25.387Z,2.33
2022-10-11T00:29:55.588Z,2.78
2022-10-11T00:32:24.080Z,2.60
2022-10-11T00:34:51.411Z,2.75
2022-10-11T00:37:20.532Z,2.80
2022-10-11T00:39:54.520Z,2.72
2022-10-11T00:42:23.098Z,2.75
2022-10-11T00:44:51.363Z,2.72
2022-10-11T00:47:22.003Z,2.70
2022-10-11T00:50:04.083Z,2.65
2022-10-11T00:52:50.451Z,2.47
2022-10-11T00:55:26.936Z,2.47
2022-10-11T00:57:56.733Z,2.50
2022-10-11T01:00:30.478Z,2.65
2022-10-11T01:03:04.052Z,2.53
2022-10-11T01:08:03.507Z,2.80
2022-10-11T01:10:33.524Z,2.88
2022-10-11T01:13:33.150Z,2.65
2022-10-11T01:16:16.116Z,2.40
2022-10-11T01:18:43.877Z,2.70
2022-10-11T01:21:17.585Z,2.60
2022-10-11T01:26:41.414Z,2.45
2022-10-11T01:29:30.298Z,2.65
2022-10-11T01:32:16.477Z,2.50
2022-10-11T01:35:06.409Z,2.42
2022-10-11T01:37:41.325Z,2.92
2022-10-11T01:40:22.306Z,2.58
2022-10-11T01:42:57.486Z,2.55
2022-10-11T01:45:27.590Z,2.65
2022-10-11T01:48:11.478Z,3.00
2022-10-11T01:50:45.094Z,2.40
2022-10-11T01:53:40.216Z,2.70
2022-10-11T01:56:37.713Z,2.50
2022-10-11T01:59:08.337Z,2.70
2022-10-11T02:04:33.002Z,2.50
2022-10-11T02:07:15.786Z,2.42
2022-10-11T02:09:52.882Z,2.63
2022-10-11T02:12:43.528Z,2.53
2022-10-11T02:15:19.844Z,2.63
2022-10-11T02:17:55.549Z,2.50
2022-10-11T02:20:29.361Z,2.50
2022-10-11T02:23:05.818Z,2.60
2022-10-11T02:25:36.522Z,2.85
2022-10-11T02:28:20.514Z,2.50
2022-10-11T02:30:54.592Z,2.63
2022-10-11T02:33:31.984Z,2.35
2022-10-11T02:36:08.522Z,2.63
2022-10-11T02:39:03.704Z,2.20
2022-10-11T02:41:40.384Z,2.45
2022-10-11T02:44:23.909Z,2.72
2022-10-11T02:46:54.786Z,2.50
2022-10-11T02:49:25.203Z,3.17
2022-10-11T02:51:58.673Z,2.83
2022-10-11T02:56:59.944Z,2.67
2022-10-11T03:02:03.987Z,2.70
2022-10-11T03:07:02.015Z,2.70
2022-10-11T03:09:34.905Z,2.50
2022-10-11T03:12:04.955Z,2.53
2022-10-11T03:14:35.488Z,2.80
2022-10-11T03:17:30.938Z,2.65
2022-10-11T03:19:57.599Z,2.35
2022-10-11T03:22:28.360Z,2.72
2022-10-11T03:25:04.341Z,2.50
2022-10-11T03:27:33.492Z,2.80
2022-10-11T03:30:05.176Z,2.53
2022-10-11T03:32:41.454Z,2.65
2022-10-11T03:35:15.363Z,2.50
2022-10-11T03:37:48.564Z,2.53
2022-10-11T03:40:21.245Z,2.80
2022-10-11T03:42:51.752Z,2.70
2022-10-11T03:45:21.894Z,2.50
2022-10-11T03:47:50.377Z,2.75
2022-10-11T03:50:20.629Z,2.47
2022-10-11T03:52:53.449Z,2.60
2022-10-11T03:55:24.009Z,2.65
2022-10-11T03:57:53.963Z,2.42
2022-10-11T04:00:27.595Z,2.58
2022-10-11T04:03:03.701Z,2.53
2022-10-11T04:05:35.634Z,2.70
2022-10-11T04:08:09.836Z,2.60
2022-10-11T04:10:44.672Z,2.50
2022-10-11T04:13:16.372Z,2.65
2022-10-11T04:15:50.091Z,2.70
2022-10-11T04:18:23.545Z,2.58
2022-10-11T04:20:56.862Z,2.25
2022-10-11T04:23:27.431Z,2.45
2022-10-11T04:26:00.542Z,3.10
2022-10-11T04:28:33.992Z,2.75
2022-10-11T04:31:05.239Z,2.70
2022-10-11T04:33:33.255Z,2.55
2022-10-11T04:36:04.148Z,2.40
2022-10-11T04:38:35.240Z,2.38
2022-10-11T04:41:15.577Z,2.38
2022-10-11T04:43:43.252Z,2.53
2022-10-11T04:46:13.664Z,2.50
2022-10-11T04:48:44.337Z,2.90
2022-10-11T04:51:12.216Z,2.83
2022-10-11T04:53:43.077Z,2.60
2022-10-11T04:56:15.132Z,2.42
2022-10-11T04:58:42.948Z,2.80
2022-10-11T05:01:16.164Z,2.50
2022-10-11T05:03:46.393Z,2.55
2022-10-11T05:06:19.921Z,2.78
2022-10-11T05:08:50.421Z,2.72
2022-10-11T05:11:21.292Z,2.95
2022-10-11T05:13:51.955Z,2.47
2022-10-11T05:16:23.425Z,2.90
2022-10-11T05:18:57.135Z,2.63
2022-10-11T05:21:29.516Z,2.75
2022-10-11T05:24:02.865Z,2.75
2022-10-11T05:26:33.061Z,2.47
2022-10-11T05:29:02.855Z,2.67
2022-10-11T05:31:38.201Z,2.90
2022-10-11T05:34:06.093Z,3.08
2022-10-11T05:36:36.796Z,2.65
2022-10-11T05:39:10.639Z,2.60
2022-10-11T05:41:41.805Z,2.60
2022-10-11T05:44:12.419Z,2.90
2022-10-11T05:46:43.749Z,2.53
2022-10-11T05:49:14.492Z,2.80
2022-10-11T05:51:48.641Z,2.80
2022-10-11T05:54:19.274Z,2.83
2022-10-11T05:56:55.761Z,2.60
2022-10-11T05:59:26.601Z,2.50
2022-10-11T06:01:57.092Z,2.70
2022-10-11T06:04:28.270Z,2.55
2022-10-11T06:06:59.002Z,2.53
2022-10-11T06:09:34.893Z,2.80
2022-10-11T06:12:05.276Z,2.83
2022-10-11T06:14:52.606Z,2.65
2022-10-11T06:17:29.027Z,2.80
2022-10-11T06:19:59.410Z,3.15
2022-10-11T06:22:32.887Z,2.65
2022-10-11T06:27:33.620Z,2.53
2022-10-11T06:30:04.900Z,3.05
2022-10-11T06:32:41.913Z,3.10
2022-10-11T06:35:12.197Z,2.85
2022-10-11T06:37:43.187Z,2.60
2022-10-11T06:40:17.767Z,2.72
2022-10-11T06:42:54.560Z,3.20
2022-10-11T06:45:28.811Z,2.70
2022-10-11T06:48:01.878Z,3.17
2022-10-11T06:50:57.927Z,2.95
2022-10-11T06:53:31.731Z,3.08
2022-10-11T06:56:13.099Z,2.60
2022-10-11T06:58:44.073Z,2.92
2022-10-11T07:01:26.677Z,2.50
2022-10-11T07:04:01.925Z,2.90
2022-10-11T07:06:31.781Z,2.95
2022-10-11T07:09:06.175Z,2.75
2022-10-11T07:11:34.799Z,3.00
2022-10-11T07:14:08.129Z,3.10
2022-10-11T07:19:10.851Z,3.00
2022-10-11T07:21:41.484Z,2.95
2022-10-11T07:24:09.650Z,3.08
2022-10-11T07:26:43.653Z,2.90
2022-10-11T07:29:17.422Z,3.00
2022-10-11T07:31:48.187Z,2.75
2022-10-11T07:34:16.456Z,2.90
2022-10-11T07:36:52.829Z,3.00
2022-10-11T07:39:21.480Z,2.70
2022-10-11T07:41:52.571Z,2.88
2022-10-11T07:44:21.113Z,3.00
2022-10-11T07:46:52.503Z,2.97
2022-10-11T07:49:24.207Z,2.60
2022-10-11T07:51:59.086Z,2.97
2022-10-11T07:54:41.809Z,3.10
2022-10-11T07:57:15.801Z,3.22
2022-10-11T07:59:50.458Z,3.28
2022-10-11T08:02:24.659Z,3.20
2022-10-11T08:04:58.211Z,2.70
2022-10-11T08:10:05.469Z,3.15
2022-10-11T08:12:36.084Z,3.20
2022-10-11T08:15:13.433Z,3.10
2022-10-11T08:17:49.999Z,2.95
2022-10-11T08:20:23.911Z,2.85
2022-10-11T08:22:51.735Z,2.92
2022-10-11T08:25:22.918Z,3.13
2022-10-11T08:27:51.567Z,2.63
2022-10-11T08:30:22.669Z,3.08
2022-10-11T08:32:53.476Z,3.70
2022-10-11T08:35:21.218Z,3.10
2022-10-11T08:37:49.132Z,4.68
2022-10-11T08:40:23.193Z,3.50
2022-10-11T08:43:04.781Z,4.07
2022-10-11T08:46:01.911Z,3.92
2022-10-11T08:48:37.278Z,4.07
2022-10-11T08:51:35.860Z,5.00
2022-10-11T08:54:21.300Z,4.43
2022-10-11T08:56:56.351Z,4.88
2022-10-11T08:59:45.943Z,4.18
2022-10-11T09:02:55.804Z,4.57
2022-10-11T09:05:28.307Z,4.18
2022-10-11T09:08:32.475Z,5.15
2022-10-11T09:13:58.175Z,4.53
2022-10-11T09:16:48.718Z,5.28
2022-10-11T09:19:32.096Z,4.82
2022-10-11T09:22:32.275Z,5.10
2022-10-11T09:25:12.249Z,4.28
2022-10-11T09:28:13.315Z,5.63
2022-10-11T09:30:51.147Z,4.57
2022-10-11T09:33:42.790Z,5.53
2022-10-11T09:36:40.117Z,5.00
2022-10-11T09:39:30.873Z,4.43
2022-10-11T09:42:11.488Z,4.38
2022-10-11T09:44:50.413Z,4.65
2022-10-11T09:47:30.078Z,4.60
2022-10-11T09:50:06.613Z,4.38
2022-10-11T09:52:34.822Z,5.30
2022-10-11T09:55:29.328Z,5.00
2022-10-11T09:58:00.358Z,5.10
2022-10-11T10:00:33.725Z,4.75
2022-10-11T10:05:37.563Z,4.85
2022-10-11T10:08:11.048Z,4.45
2022-10-11T10:11:04.652Z,4.47
2022-10-11T10:13:51.422Z,4.25
2022-10-11T10:16:22.375Z,4.43
2022-10-11T10:19:23.391Z,4.20
2022-10-11T10:21:58.353Z,5.20
2022-10-11T10:24:34.949Z,5.32
2022-10-11T10:27:14.922Z,4.30
2022-10-11T10:30:01.037Z,4.65
2022-10-11T10:32:55.826Z,4.88
2022-10-11T10:35:36.250Z,4.50
2022-10-11T10:38:16.902Z,4.40
2022-10-11T10:40:49.756Z,4.60
2022-10-11T10:43:27.029Z,4.25
2022-10-11T10:46:03.712Z,4.25
2022-10-11T10:49:34.824Z,4.25
2022-10-11T10:52:10.637Z,4.28
2022-10-11T10:55:00.409Z,4.35
2022-10-11T10:57:46.975Z,4.13
2022-10-11T11:00:22.154Z,4.10
2022-10-11T11:03:18.356Z,4.65
2022-10-11T11:06:05.251Z,5.00
2022-10-11T11:08:55.035Z,4.85
2022-10-11T11:11:54.312Z,4.63
2022-10-11T11:14:44.157Z,4.78
2022-10-11T11:17:30.885Z,5.43
2022-10-11T11:20:06.249Z,4.80
2022-10-11T11:22:49.409Z,5.20
2022-10-11T11:25:27.554Z,5.93
2022-10-11T11:28:16.458Z,5.85
2022-10-11T11:31:11.617Z,6.18
2022-10-11T11:33:48.910Z,5.05
2022-10-11T11:36:27.744Z,5.68
2022-10-11T11:39:05.907Z,5.07
2022-10-11T11:41:41.366Z,5.53
2022-10-11T11:44:31.213Z,5.35
2022-10-11T11:47:11.915Z,5.85
2022-10-11T11:49:48.774Z,5.07
2022-10-11T11:52:31.476Z,5.60
2022-10-11T11:55:08.107Z,5.10
2022-10-11T11:57:49.883Z,5.15
2022-10-11T12:00:27.633Z,6.05
2022-10-11T12:03:21.795Z,6.15
2022-10-11T12:08:42.063Z,4.70
2022-10-11T12:11:26.284Z,6.80
2022-10-11T12:13:59.466Z,5.55
2022-10-11T12:16:34.816Z,4.60
2022-10-11T12:19:09.538Z,6.28
2022-10-11T12:21:44.501Z,4.40
2022-10-11T12:24:24.539Z,5.10
2022-10-11T12:27:18.478Z,5.57
2022-10-11T12:29:52.944Z,4.82
2022-10-11T12:32:35.879Z,4.55
2022-10-11T12:35:38.500Z,5.20
2022-10-11T12:38:21.681Z,4.65
2022-10-11T12:41:00.721Z,4.60
2022-10-11T12:43:36.349Z,4.88
2022-10-11T12:46:31.186Z,4.60
2022-10-11T12:49:09.604Z,4.70
2022-10-11T12:51:54.016Z,4.60
2022-10-11T12:54:46.337Z,5.03
2022-10-11T12:57:23.837Z,4.63
2022-10-11T12:59:54.983Z,4.50
2022-10-11T13:02:44.937Z,5.22
2022-10-11T13:05:31.453Z,4.75
2022-10-11T13:08:12.648Z,4.13
2022-10-11T13:10:46.369Z,4.45
2022-10-11T13:13:40.243Z,3.92
2022-10-11T13:19:02.867Z,4.55
2022-10-11T13:21:38.807Z,4.38
2022-10-11T13:24:18.823Z,3.88
2022-10-11T13:26:52.192Z,3.90
2022-10-11T13:29:29.757Z,4.05
2022-10-11T13:32:04.504Z,5.65
2022-10-11T13:34:39.429Z,4.93
2022-10-11T13:37:13.314Z,4.53
2022-10-11T13:39:45.493Z,4.43
2022-10-11T13:42:19.311Z,4.38
2022-10-11T13:44:47.872Z,4.53
2022-10-11T13:47:27.989Z,4.40
2022-10-11T13:50:17.264Z,4.13
2022-10-11T13:53:01.201Z,4.40
2022-10-11T13:56:00.053Z,3.97
2022-10-11T13:58:46.274Z,4.28
2022-10-11T14:01:22.594Z,4.30
2022-10-11T14:04:04.096Z,5.20
2022-10-11T14:06:39.908Z,4.40
2022-10-11T14:09:17.704Z,4.45
2022-10-11T14:11:52.035Z,4.18
2022-10-11T14:14:33.912Z,4.15
2022-10-11T14:17:16.999Z,4.50
2022-10-11T14:19:47.328Z,4.50
2022-10-11T14:22:18.023Z,4.30
2022-10-11T14:24:49.062Z,4.28
2022-10-11T14:27:23.356Z,4.05
2022-10-11T14:30:20.319Z,3.70
2022-10-11T14:32:58.282Z,4.22
2022-10-11T14:35:34.365Z,4.03
2022-10-11T14:40:37.474Z,3.10
2022-10-11T14:43:11.556Z,3.78
2022-10-11T14:45:47.877Z,3.50
2022-10-11T14:48:43.057Z,4.03
2022-10-11T14:51:13.427Z,3.97
2022-10-11T14:53:46.455Z,3.92
2022-10-11T14:56:21.136Z,4.18
2022-10-11T14:58:52.544Z,3.08
2022-10-11T15:01:26.348Z,3.15
2022-10-11T15:03:58.373Z,3.50
2022-10-11T15:06:33.017Z,3.22
2022-10-11T15:09:04.791Z,3.78
2022-10-11T15:11:36.860Z,3.80
2022-10-11T15:14:07.514Z,3.67
2022-10-11T15:16:36.593Z,3.90
2022-10-11T15:19:05.740Z,3.50
2022-10-11T15:21:36.998Z,3.65
2022-10-11T15:24:05.908Z,3.28
2022-10-11T15:26:38.266Z,4.00
2022-10-11T15:29:09.966Z,3.67
2022-10-11T15:31:39.119Z,3.47
2022-10-11T15:34:07.545Z,3.63
2022-10-11T15:36:38.544Z,3.63
2022-10-11T15:39:28.765Z,4.13
2022-10-11T15:42:04.939Z,3.78
2022-10-11T15:44:38.275Z,4.18
2022-10-11T15:49:36.356Z,3.63
2022-10-11T15:52:04.396Z,3.30
2022-10-11T15:54:34.989Z,3.80
2022-10-11T15:57:09.181Z,3.90
2022-10-11T15:59:40.070Z,3.30
2022-10-11T16:02:17.265Z,3.78
2022-10-11T16:04:48.081Z,4.00
2022-10-11T16:07:22.441Z,2.95
2022-10-11T16:09:54.610Z,3.92
2022-10-11T16:12:25.058Z,3.85
2022-10-11T16:14:56.409Z,3.20
2022-10-11T16:17:24.731Z,3.00
2022-10-11T16:19:52.871Z,3.60
2022-10-11T16:22:26.918Z,3.55
2022-10-11T16:24:57.684Z,4.38
2022-10-11T16:27:26.782Z,4.95
2022-10-11T16:29:57.432Z,5.55
2022-10-11T16:32:28.534Z,5.82
2022-10-11T16:34:59.845Z,5.53
2022-10-11T16:37:31.610Z,5.97
2022-10-11T16:39:59.668Z,5.88
2022-10-11T16:42:30.704Z,5.88
2022-10-11T16:45:04.043Z,5.82
2022-10-11T16:50:09.386Z,5.68
2022-10-11T16:52:40.234Z,6.25
2022-10-11T16:55:08.811Z,6.03
2022-10-11T16:57:42.723Z,4.97
2022-10-11T17:00:17.160Z,6.45
2022-10-11T17:02:45.252Z,6.72
2022-10-11T17:05:16.157Z,5.90
2022-10-11T17:07:46.967Z,5.90
2022-10-11T17:10:17.231Z,5.85
2022-10-11T17:12:49.899Z,6.10
2022-10-11T17:15:18.271Z,6.35
2022-10-11T17:17:46.169Z,6.55
2022-10-11T17:20:16.532Z,6.05
2022-10-11T17:22:44.502Z,6.30
2022-10-11T17:25:12.550Z,6.53
2022-10-11T17:27:40.791Z,6.72
2022-10-11T17:30:09.878Z,7.78
2022-10-11T17:32:40.682Z,6.85
2022-10-11T17:35:19.631Z,5.65
2022-10-11T17:37:50.792Z,5.85
2022-10-11T17:40:22.587Z,6.13
2022-10-11T17:42:50.444Z,5.97
2022-10-11T17:45:24.585Z,4.70
2022-10-11T17:48:00.631Z,4.10
2022-10-11T17:50:34.291Z,4.90
2022-10-11T17:53:04.500Z,4.53
2022-10-11T17:55:35.143Z,4.63
2022-10-11T17:58:11.184Z,4.50
2022-10-11T18:00:43.975Z,4.10
2022-10-11T18:03:14.317Z,4.30
2022-10-11T18:05:45.014Z,4.22
2022-10-11T18:08:18.842Z,4.43
2022-10-11T18:10:51.827Z,4.60
2022-10-11T18:13:24.835Z,4.10
2022-10-11T18:15:55.270Z,4.35
2022-10-11T18:18:23.693Z,4.50
2022-10-11T18:20:51.784Z,4.35
2022-10-11T18:23:25.505Z,4.50
2022-10-11T18:25:58.687Z,3.78
2022-10-11T18:28:32.203Z,4.45
2022-10-11T18:31:00.723Z,3.90
2022-10-11T18:33:35.437Z,4.32
2022-10-11T18:36:07.425Z,4.10
2022-10-11T18:38:46.180Z,3.85
2022-10-11T18:41:20.673Z,4.07
2022-10-11T18:43:57.863Z,3.85
2022-10-11T18:46:31.170Z,3.65
2022-10-11T18:49:01.330Z,3.65
2022-10-11T18:51:36.899Z,4.38
2022-10-11T18:54:09.447Z,3.63
2022-10-11T18:56:40.022Z,3.88
2022-10-11T18:59:15.679Z,3.78
2022-10-11T19:01:46.620Z,3.92
2022-10-11T19:04:16.857Z,3.95
2022-10-11T19:06:50.433Z,3.92
2022-10-11T19:09:23.738Z,3.92
2022-10-11T19:11:54.760Z,4.00
2022-10-11T19:14:28.640Z,4.20
2022-10-11T19:16:57.064Z,4.22
2022-10-11T19:19:28.931Z,3.70
2022-10-11T19:21:58.849Z,4.00
2022-10-11T19:24:28.509Z,3.63
2022-10-11T19:27:02.703Z,3.70
2022-10-11T19:29:34.387Z,3.47
2022-10-11T19:32:07.082Z,3.80
2022-10-11T19:34:35.848Z,4.20
2022-10-11T19:37:06.022Z,4.05
2022-10-11T19:39:39.223Z,4.18
2022-10-11T19:42:09.753Z,3.90
2022-10-11T19:44:39.865Z,3.83
2022-10-11T19:47:10.841Z,3.97
2022-10-11T19:49:40.978Z,3.75
2022-10-11T19:52:13.342Z,3.72
2022-10-11T19:54:44.205Z,3.83
2022-10-11T19:57:16.876Z,3.67
2022-10-11T19:59:47.646Z,3.73
2022-10-11T20:02:24.629Z,3.53
2022-10-11T20:05:00.568Z,3.70
2022-10-11T20:07:30.669Z,3.83
2022-10-11T20:10:03.476Z,3.65
2022-10-11T20:12:33.828Z,3.85
2022-10-11T20:15:06.955Z,4.05
2022-10-11T20:17:50.077Z,3.80
2022-10-11T20:20:23.356Z,4.28
2022-10-11T20:22:53.996Z,3.90
2022-10-11T20:25:26.653Z,3.75
2022-10-11T20:27:57.111Z,3.78
2022-10-11T20:30:30.129Z,3.78
2022-10-11T20:33:05.552Z,3.88
2022-10-11T20:35:38.347Z,4.00
2022-10-11T20:38:05.774Z,3.70
2022-10-11T20:40:33.161Z,3.75
2022-10-11T20:43:05.860Z,3.78
2022-10-11T20:45:36.195Z,3.65
2022-10-11T20:48:03.952Z,3.60
2022-10-11T20:50:31.891Z,3.67
2022-10-11T20:53:05.281Z,3.60
2022-10-11T20:55:37.291Z,3.75
2022-10-11T20:58:12.420Z,4.15
2022-10-11T21:00:40.634Z,4.00
2022-10-11T21:03:09.538Z,3.53
2022-10-11T21:05:39.913Z,3.97
2022-10-11T21:08:15.101Z,3.67
2022-10-11T21:10:53.291Z,3.75
2022-10-11T21:13:22.014Z,3.60
2022-10-11T21:15:55.247Z,3.83
2022-10-11T21:18:24.862Z,3.63
2022-10-11T21:20:57.795Z,3.65
2022-10-11T21:23:25.387Z,3.65
2022-10-11T21:26:00.870Z,3.75
2022-10-11T21:28:39.335Z,3.63
2022-10-11T21:31:15.711Z,3.33
2022-10-11T21:33:47.190Z,3.50
2022-10-11T21:36:21.070Z,3.50
2022-10-11T21:38:51.736Z,3.97
2022-10-11T21:41:21.907Z,3.78
2022-10-11T21:43:52.895Z,3.85
2022-10-11T21:46:53.974Z,3.50
2022-10-11T21:49:20.826Z,3.65
2022-10-11T21:51:50.930Z,3.83
2022-10-11T21:54:20.997Z,3.70
2022-10-11T21:56:48.699Z,4.40
2022-10-11T21:59:24.210Z,3.47
2022-10-11T22:02:01.678Z,3.85
2022-10-11T22:04:35.151Z,3.47
2022-10-11T22:07:04.948Z,3.92
2022-10-11T22:09:40.131Z,3.60
2022-10-11T22:12:12.674Z,3.72
2022-10-11T22:14:48.379Z,3.72
2022-10-11T22:17:21.563Z,3.78
2022-10-11T22:19:50.023Z,3.50
2022-10-11T22:22:20.419Z,3.58
2022-10-11T22:24:53.303Z,3.58
2022-10-11T22:27:26.978Z,3.70
2022-10-11T22:30:00.944Z,3.90
2022-10-11T22:32:29.824Z,3.58
2022-10-11T22:34:59.860Z,3.80
2022-10-11T22:37:33.532Z,3.70
2022-10-11T22:40:10.065Z,3.58
2022-10-11T22:42:43.036Z,3.50
2022-10-11T22:45:18.721Z,4.10
2022-10-11T22:47:54.593Z,3.60
2022-10-11T22:50:28.017Z,3.70
2022-10-11T22:55:28.471Z,3.30
2022-10-11T22:58:02.045Z,3.78
2022-10-11T23:03:01.731Z,3.90
2022-10-11T23:05:29.385Z,3.33
2022-10-11T23:08:02.265Z,3.60
2022-10-11T23:10:43.849Z,3.45
2022-10-11T23:13:15.285Z,3.75
2022-10-11T23:15:50.904Z,3.50
2022-10-11T23:18:23.273Z,3.70
2022-10-11T23:20:55.452Z,3.88
2022-10-11T23:23:25.819Z,3.60
2022-10-11T23:26:14.089Z,3.35
2022-10-11T23:28:43.015Z,3.50
2022-10-11T23:31:18.746Z,3.95
2022-10-11T23:33:51.142Z,3.28
2022-10-11T23:36:26.015Z,3.80
2022-10-11T23:38:55.863Z,3.60
2022-10-11T23:41:28.953Z,3.70
2022-10-11T23:43:57.147Z,3.50
2022-10-11T23:46:33.085Z,3.65
2022-10-11T23:49:11.126Z,3.47
2022-10-11T23:51:43.479Z,3.35
2022-10-11T23:54:16.389Z,3.08
2022-10-11T23:56:50.031Z,3.35
2022-10-11T23:59:25.165Z,3.42
